createdAt,value
2019-05-11T00:01:41.899Z,13.80
2019-05-11T00:04:10.879Z,13.80
2019-05-11T00:06:39.974Z,13.80
2019-05-11T00:09:09.099Z,13.80
2019-05-11T00:11:38.404Z,13.70
2019-05-11T00:14:07.394Z,13.70
2019-05-11T00:16:36.356Z,13.70
2019-05-11T00:19:05.355Z,13.70
2019-05-11T00:21:34.319Z,13.70
2019-05-11T00:24:03.349Z,13.70
2019-05-11T00:26:32.323Z,13.60
2019-05-11T00:29:01.295Z,13.50
2019-05-11T00:31:30.323Z,13.60
2019-05-11T00:33:59.354Z,13.50
2019-05-11T00:36:28.339Z,13.40
2019-05-11T00:38:57.400Z,13.40
2019-05-11T00:41:26.464Z,13.40
2019-05-11T00:43:57.386Z,13.30
2019-05-11T00:46:26.409Z,13.40
2019-05-11T00:48:55.443Z,13.40
2019-05-11T00:51:24.427Z,13.50
2019-05-11T00:53:53.871Z,13.60
2019-05-11T00:56:22.889Z,13.50
2019-05-11T00:58:51.929Z,13.50
2019-05-11T01:01:20.966Z,13.50
2019-05-11T01:03:49.952Z,13.60
2019-05-11T01:06:18.932Z,13.50
2019-05-11T01:08:48.088Z,13.50
2019-05-11T01:11:17.180Z,13.50
2019-05-11T01:13:46.441Z,13.40
2019-05-11T01:16:15.429Z,13.40
2019-05-11T01:18:44.477Z,13.40
2019-05-11T01:21:13.473Z,13.40
2019-05-11T01:23:42.464Z,13.50
2019-05-11T01:26:11.521Z,13.40
2019-05-11T01:28:40.557Z,13.30
2019-05-11T01:31:09.913Z,13.30
2019-05-11T01:33:38.922Z,13.30
2019-05-11T01:36:07.973Z,13.30
2019-05-11T01:38:37.016Z,13.20
2019-05-11T01:41:06.215Z,13.20
2019-05-11T01:43:35.187Z,13.30
2019-05-11T01:46:04.422Z,13.40
2019-05-11T01:48:33.530Z,13.50
2019-05-11T01:51:02.506Z,13.50
2019-05-11T01:53:31.561Z,13.50
2019-05-11T01:56:00.526Z,13.50
2019-05-11T01:58:29.578Z,13.50
2019-05-11T02:00:58.545Z,13.50
2019-05-11T02:03:27.513Z,13.40
2019-05-11T02:05:56.573Z,13.40
2019-05-11T02:08:25.606Z,13.40
2019-05-11T02:10:54.577Z,13.40
2019-05-11T02:13:23.662Z,13.50
2019-05-11T02:15:52.695Z,13.50
2019-05-11T02:18:21.694Z,13.40
2019-05-11T02:20:50.721Z,13.40
2019-05-11T02:23:19.809Z,13.40
2019-05-11T02:25:48.870Z,13.20
2019-05-11T02:28:17.906Z,13.10
2019-05-11T02:30:47.326Z,13.30
2019-05-11T02:33:16.369Z,13.20
2019-05-11T02:35:45.712Z,13.40
2019-05-11T02:38:14.670Z,13.40
2019-05-11T02:40:43.698Z,13.40
2019-05-11T02:43:12.882Z,13.40
2019-05-11T02:45:42.697Z,13.40
2019-05-11T02:48:12.556Z,13.40
2019-05-11T02:50:42.046Z,13.40
2019-05-11T02:53:11.105Z,13.40
2019-05-11T02:55:41.071Z,13.30
2019-05-11T02:58:10.206Z,13.30
2019-05-11T03:00:41.316Z,13.40
2019-05-11T03:03:10.622Z,13.40
2019-05-11T03:05:39.807Z,13.40
2019-05-11T03:08:08.838Z,13.50
2019-05-11T03:10:38.048Z,13.40
2019-05-11T03:13:07.174Z,13.40
2019-05-11T03:15:36.290Z,13.40
2019-05-11T03:18:05.333Z,13.30
2019-05-11T03:20:34.378Z,13.20
2019-05-11T03:23:03.427Z,13.10
2019-05-11T03:25:32.463Z,13.10
2019-05-11T03:28:01.802Z,13.10
2019-05-11T03:30:30.843Z,13.20
2019-05-11T03:33:00.185Z,13.20
2019-05-11T03:35:29.498Z,13.20
2019-05-11T03:37:58.464Z,13.30
2019-05-11T03:40:27.443Z,13.30
2019-05-11T03:42:56.768Z,13.20
2019-05-11T03:45:25.759Z,13.40
2019-05-11T03:47:54.791Z,13.30
2019-05-11T03:50:23.775Z,13.40
2019-05-11T03:52:52.807Z,13.30
2019-05-11T03:55:21.837Z,13.30
2019-05-11T03:57:50.876Z,13.20
2019-05-11T04:00:20.248Z,13.10
2019-05-11T04:02:49.236Z,13.10
2019-05-11T04:05:18.206Z,13.10
2019-05-11T04:07:47.380Z,13.20
2019-05-11T04:10:16.492Z,13.20
2019-05-11T04:12:45.524Z,13.20
2019-05-11T04:15:14.872Z,13.30
2019-05-11T04:17:43.895Z,13.30
2019-05-11T04:20:13.081Z,13.10
2019-05-11T04:22:42.034Z,13.20
2019-05-11T04:25:11.172Z,13.30
2019-05-11T04:27:40.137Z,13.30
2019-05-11T04:30:09.315Z,13.30
2019-05-11T04:32:38.380Z,13.20
2019-05-11T04:35:07.549Z,13.20
2019-05-11T04:37:36.550Z,13.20
2019-05-11T04:40:06.615Z,13.30
2019-05-11T04:42:53.413Z,13.30
2019-05-11T04:45:07.946Z,13.30
2019-05-11T04:47:36.999Z,13.20
2019-05-11T04:50:07.607Z,13.30
2019-05-11T04:52:36.582Z,13.30
2019-05-11T04:55:05.895Z,13.20
2019-05-11T04:57:35.334Z,13.30
2019-05-11T05:00:05.809Z,13.30
2019-05-11T05:02:34.941Z,13.30
2019-05-11T05:05:05.485Z,13.30
2019-05-11T05:07:34.771Z,13.40
2019-05-11T05:10:04.722Z,13.30
2019-05-11T05:12:33.686Z,13.20
2019-05-11T05:15:02.768Z,13.20
2019-05-11T05:17:31.809Z,13.20
2019-05-11T05:20:00.851Z,13.10
2019-05-11T05:22:29.904Z,13.20
2019-05-11T05:24:59.175Z,13.20
2019-05-11T05:27:28.315Z,13.20
2019-05-11T05:29:57.343Z,13.10
2019-05-11T05:32:26.305Z,13.10
2019-05-11T05:34:55.276Z,13.10
2019-05-11T05:37:24.618Z,13.10
2019-05-11T05:39:54.113Z,13.10
2019-05-11T05:42:23.416Z,13.10
2019-05-11T05:44:52.373Z,13.20
2019-05-11T05:47:21.445Z,13.20
2019-05-11T05:49:50.489Z,13.30
2019-05-11T05:52:19.478Z,13.30
2019-05-11T05:54:48.455Z,13.40
2019-05-11T05:57:17.463Z,13.50
2019-05-11T05:59:46.506Z,13.60
2019-05-11T06:02:15.544Z,13.70
2019-05-11T06:04:44.515Z,13.70
2019-05-11T06:07:13.473Z,13.70
2019-05-11T06:09:42.540Z,13.70
2019-05-11T06:12:11.807Z,13.60
2019-05-11T06:14:40.838Z,13.50
2019-05-11T06:17:10.090Z,13.40
2019-05-11T06:19:39.400Z,13.40
2019-05-11T06:22:08.394Z,13.60
2019-05-11T06:24:37.432Z,13.70
2019-05-11T06:27:06.421Z,13.70
2019-05-11T06:29:35.463Z,13.70
2019-05-11T06:32:04.784Z,13.80
2019-05-11T06:34:33.775Z,13.90
2019-05-11T06:37:02.736Z,13.90
2019-05-11T06:39:31.701Z,13.80
2019-05-11T06:42:00.978Z,14.00
2019-05-11T06:44:30.023Z,13.90
2019-05-11T06:46:59.096Z,14.00
2019-05-11T06:49:28.536Z,14.10
2019-05-11T06:51:57.502Z,14.20
2019-05-11T06:54:26.505Z,14.20
2019-05-11T06:56:55.587Z,14.20
2019-05-11T06:59:24.608Z,14.30
2019-05-11T07:01:53.575Z,14.30
2019-05-11T07:04:22.544Z,14.30
2019-05-11T07:06:51.528Z,14.50
2019-05-11T07:09:20.495Z,14.50
2019-05-11T07:11:49.548Z,14.60
2019-05-11T07:14:21.077Z,14.80
2019-05-11T07:16:49.469Z,15.10
2019-05-11T07:19:18.769Z,15.60
2019-05-11T07:21:47.717Z,16.00
2019-05-11T07:24:16.977Z,16.30
2019-05-11T07:26:46.046Z,16.60
2019-05-11T07:29:15.003Z,16.80
2019-05-11T07:31:43.962Z,17.00
2019-05-11T07:34:13.036Z,17.10
2019-05-11T07:36:41.996Z,17.00
2019-05-11T07:39:11.047Z,17.10
2019-05-11T07:41:40.021Z,17.30
2019-05-11T07:44:10.006Z,17.40
2019-05-11T07:46:39.465Z,17.50
2019-05-11T07:49:08.824Z,17.60
2019-05-11T07:51:38.913Z,17.60
2019-05-11T07:54:08.528Z,17.50
2019-05-11T07:56:39.022Z,17.30
2019-05-11T07:59:08.504Z,17.20
2019-05-11T08:01:38.696Z,17.10
2019-05-11T08:04:08.006Z,17.20
2019-05-11T08:06:39.063Z,17.30
2019-05-11T08:09:08.559Z,17.60
2019-05-11T08:11:38.932Z,17.70
2019-05-11T08:14:08.295Z,17.80
2019-05-11T08:16:39.097Z,17.70
2019-05-11T08:19:10.709Z,17.40
2019-05-11T08:21:40.112Z,17.40
2019-05-11T08:24:09.328Z,17.30
2019-05-11T08:26:38.787Z,17.20
2019-05-11T08:29:08.235Z,17.40
2019-05-11T08:31:38.477Z,17.60
2019-05-11T08:34:08.874Z,17.80
2019-05-11T08:36:38.079Z,18.00
2019-05-11T08:39:07.984Z,18.30
2019-05-11T08:41:38.418Z,18.60
2019-05-11T08:44:08.979Z,18.70
2019-05-11T08:46:38.764Z,18.90
2019-05-11T08:49:08.792Z,18.80
2019-05-11T08:51:38.660Z,18.60
2019-05-11T08:54:09.073Z,18.40
2019-05-11T08:56:38.736Z,18.00
2019-05-11T08:59:08.216Z,17.80
2019-05-11T09:01:39.362Z,17.50
2019-05-11T09:04:09.011Z,17.70
2019-05-11T09:06:38.291Z,18.00
2019-05-11T09:09:08.875Z,18.10
2019-05-11T09:11:38.897Z,17.90
2019-05-11T09:14:08.428Z,17.70
2019-05-11T09:16:38.490Z,17.80
2019-05-11T09:19:08.742Z,18.20
2019-05-11T09:21:38.517Z,19.00
2019-05-11T09:24:08.478Z,19.60
2019-05-11T09:26:38.863Z,20.20
2019-05-11T09:29:08.813Z,20.60
2019-05-11T09:31:38.349Z,21.30
2019-05-11T09:34:09.056Z,21.50
2019-05-11T09:36:38.840Z,21.80
2019-05-11T09:39:08.872Z,22.00
2019-05-11T09:41:38.391Z,21.40
2019-05-11T09:44:08.940Z,21.00
2019-05-11T09:46:38.598Z,20.70
2019-05-11T09:49:08.177Z,20.30
2019-05-11T09:51:38.247Z,20.00
2019-05-11T09:54:08.090Z,19.80
2019-05-11T09:56:38.133Z,19.90
2019-05-11T09:59:08.867Z,19.90
2019-05-11T10:01:38.290Z,20.10
2019-05-11T10:04:08.964Z,20.00
2019-05-11T10:06:38.994Z,19.40
2019-05-11T10:09:08.599Z,19.30
2019-05-11T10:11:39.670Z,18.90
2019-05-11T10:14:08.571Z,19.10
2019-05-11T10:16:38.631Z,19.80
2019-05-11T10:19:08.597Z,20.30
2019-05-11T10:21:38.586Z,20.70
2019-05-11T10:24:08.474Z,20.70
2019-05-11T10:26:38.497Z,21.00
2019-05-11T10:29:08.019Z,21.50
2019-05-11T10:31:38.601Z,21.80
2019-05-11T10:34:08.635Z,21.10
2019-05-11T10:36:38.619Z,20.50
2019-05-11T10:39:09.001Z,20.10
2019-05-11T10:41:38.749Z,20.10
2019-05-11T10:44:08.325Z,20.40
2019-05-11T10:46:38.164Z,20.80
2019-05-11T10:49:08.140Z,21.20
2019-05-11T10:51:38.363Z,21.60
2019-05-11T10:54:08.662Z,21.40
2019-05-11T10:56:38.823Z,21.00
2019-05-11T10:59:08.231Z,20.70
2019-05-11T11:01:38.069Z,20.70
2019-05-11T11:04:08.065Z,20.90
2019-05-11T11:06:38.655Z,20.70
2019-05-11T11:09:09.862Z,20.50
2019-05-11T11:11:38.816Z,20.40
2019-05-11T11:14:08.698Z,20.90
2019-05-11T11:16:42.428Z,21.30
2019-05-11T11:19:08.722Z,21.80
2019-05-11T11:21:38.334Z,22.20
2019-05-11T11:24:07.808Z,22.30
2019-05-11T11:26:38.148Z,22.40
2019-05-11T11:29:08.563Z,22.70
2019-05-11T11:31:38.114Z,23.00
2019-05-11T11:34:08.297Z,23.50
2019-05-11T11:36:37.734Z,23.80
2019-05-11T11:39:08.488Z,23.70
2019-05-11T11:41:38.126Z,23.40
2019-05-11T11:44:07.858Z,23.40
2019-05-11T11:46:50.766Z,23.50
2019-05-11T11:49:08.486Z,23.40
2019-05-11T11:51:38.002Z,22.80
2019-05-11T11:54:08.704Z,22.30
2019-05-11T11:56:38.145Z,21.80
2019-05-11T11:59:08.490Z,21.70
2019-05-11T12:01:38.499Z,22.10
2019-05-11T12:04:08.212Z,22.40
2019-05-11T12:06:38.672Z,22.80
2019-05-11T12:09:09.081Z,22.60
2019-05-11T12:11:38.311Z,22.20
2019-05-11T12:14:08.677Z,21.90
2019-05-11T12:16:38.806Z,22.10
2019-05-11T12:19:08.517Z,22.30
2019-05-11T12:21:38.086Z,22.70
2019-05-11T12:24:08.141Z,23.10
2019-05-11T12:26:38.857Z,23.30
2019-05-11T12:29:08.300Z,23.00
2019-05-11T12:31:38.065Z,22.40
2019-05-11T12:34:08.771Z,22.00
2019-05-11T12:36:38.651Z,21.50
2019-05-11T12:39:08.613Z,21.20
2019-05-11T12:41:38.755Z,21.10
2019-05-11T12:44:08.363Z,21.40
2019-05-11T12:46:39.556Z,21.80
2019-05-11T12:49:08.382Z,22.40
2019-05-11T12:51:38.280Z,22.40
2019-05-11T12:54:08.276Z,22.30
2019-05-11T12:56:38.445Z,22.30
2019-05-11T12:59:08.220Z,22.40
2019-05-11T13:01:38.236Z,22.50
2019-05-11T13:04:09.011Z,22.80
2019-05-11T13:06:38.631Z,22.90
2019-05-11T13:09:08.640Z,22.80
2019-05-11T13:11:38.074Z,22.50
2019-05-11T13:14:08.089Z,22.60
2019-05-11T13:16:38.062Z,22.90
2019-05-11T13:19:08.321Z,23.00
2019-05-11T13:21:38.397Z,23.10
2019-05-11T13:24:08.355Z,23.10
2019-05-11T13:26:38.206Z,22.80
2019-05-11T13:29:07.925Z,22.80
2019-05-11T13:31:38.384Z,22.90
2019-05-11T13:34:08.321Z,22.90
2019-05-11T13:36:38.233Z,22.90
2019-05-11T13:39:08.874Z,23.10
2019-05-11T13:41:38.470Z,23.20
2019-05-11T13:44:07.937Z,23.10
2019-05-11T13:46:38.913Z,22.90
2019-05-11T13:49:08.566Z,22.90
2019-05-11T13:51:38.870Z,22.80
2019-05-11T13:54:08.275Z,22.40
2019-05-11T13:56:38.048Z,22.30
2019-05-11T13:59:10.544Z,22.20
2019-05-11T14:01:39.241Z,22.20
2019-05-11T14:04:08.721Z,22.20
2019-05-11T14:06:37.982Z,22.20
2019-05-11T14:09:08.548Z,22.30
2019-05-11T14:11:39.076Z,22.10
2019-05-11T14:14:08.561Z,21.90
2019-05-11T14:16:38.040Z,21.80
2019-05-11T14:19:08.695Z,21.80
2019-05-11T14:21:38.632Z,21.70
2019-05-11T14:24:08.066Z,21.70
2019-05-11T14:26:38.564Z,21.70
2019-05-11T14:29:08.708Z,21.80
2019-05-11T14:31:38.712Z,21.80
2019-05-11T14:34:09.115Z,21.70
2019-05-11T14:36:38.806Z,21.70
2019-05-11T14:39:08.779Z,21.50
2019-05-11T14:41:38.294Z,21.40
2019-05-11T14:44:08.936Z,21.30
2019-05-11T14:46:38.524Z,21.30
2019-05-11T14:49:08.165Z,21.20
2019-05-11T14:51:39.176Z,21.00
2019-05-11T14:54:08.330Z,20.90
2019-05-11T14:56:38.238Z,21.10
2019-05-11T14:59:08.886Z,21.00
2019-05-11T15:01:38.383Z,21.20
2019-05-11T15:04:09.014Z,21.20
2019-05-11T15:06:38.756Z,21.30
2019-05-11T15:09:08.587Z,21.20
2019-05-11T15:11:38.786Z,21.00
2019-05-11T15:14:08.384Z,20.90
2019-05-11T15:16:38.372Z,20.80
2019-05-11T15:19:08.219Z,20.80
2019-05-11T15:21:38.658Z,20.80
2019-05-11T15:24:09.073Z,20.90
2019-05-11T15:26:38.437Z,20.80
2019-05-11T15:29:08.287Z,20.70
2019-05-11T15:31:38.076Z,20.70
2019-05-11T15:34:08.650Z,20.40
2019-05-11T15:36:38.718Z,20.30
2019-05-11T15:39:08.463Z,20.20
2019-05-11T15:41:38.889Z,20.10
2019-05-11T15:44:11.815Z,20.20
2019-05-11T15:46:39.202Z,20.20
2019-05-11T15:49:08.867Z,20.30
2019-05-11T15:51:41.080Z,20.30
2019-05-11T15:54:08.789Z,20.30
2019-05-11T15:56:38.567Z,20.30
2019-05-11T15:59:08.747Z,20.40
2019-05-11T16:01:41.215Z,20.50
2019-05-11T16:04:09.425Z,20.40
2019-05-11T16:06:38.451Z,20.20
2019-05-11T16:09:08.553Z,20.10
2019-05-11T16:11:38.847Z,19.90
2019-05-11T16:14:08.888Z,19.60
2019-05-11T16:16:39.023Z,19.40
2019-05-11T16:19:13.843Z,19.50
2019-05-11T16:21:39.126Z,19.50
2019-05-11T16:24:08.328Z,19.50
2019-05-11T16:26:37.410Z,19.60
2019-05-11T16:29:08.508Z,19.50
2019-05-11T16:31:37.868Z,19.50
2019-05-11T16:34:08.081Z,19.30
2019-05-11T16:36:38.866Z,19.20
2019-05-11T16:39:10.335Z,19.10
2019-05-11T16:41:38.949Z,19.00
2019-05-11T16:44:08.108Z,18.70
2019-05-11T16:46:38.966Z,18.50
2019-05-11T16:49:10.689Z,18.40
2019-05-11T16:51:38.993Z,18.40
2019-05-11T16:54:08.480Z,18.20
2019-05-11T16:56:38.248Z,18.20
2019-05-11T16:59:08.152Z,17.90
2019-05-11T17:01:38.098Z,17.80
2019-05-11T17:04:07.354Z,17.80
2019-05-11T17:06:38.569Z,17.70
2019-05-11T17:09:08.914Z,17.60
2019-05-11T17:11:38.635Z,17.50
2019-05-11T17:14:08.452Z,17.30
2019-05-11T17:16:38.589Z,17.10
2019-05-11T17:19:08.314Z,17.10
2019-05-11T17:21:38.040Z,17.10
2019-05-11T17:24:07.718Z,17.10
2019-05-11T17:26:38.600Z,17.10
2019-05-11T17:29:09.862Z,17.10
2019-05-11T17:31:38.490Z,17.20
2019-05-11T17:34:08.973Z,17.30
2019-05-11T17:36:38.179Z,17.30
2019-05-11T17:39:08.228Z,17.30
2019-05-11T17:41:38.638Z,17.40
2019-05-11T17:44:08.380Z,17.40
2019-05-11T17:46:38.498Z,17.30
2019-05-11T17:49:07.994Z,17.20
2019-05-11T17:51:37.972Z,17.20
2019-05-11T17:54:07.928Z,17.20
2019-05-11T17:56:38.848Z,17.10
2019-05-11T17:59:08.376Z,17.00
2019-05-11T18:01:37.332Z,16.90
2019-05-11T18:04:08.084Z,16.80
2019-05-11T18:06:38.473Z,16.80
2019-05-11T18:09:08.688Z,16.60
2019-05-11T18:11:38.099Z,16.70
2019-05-11T18:14:08.429Z,16.60
2019-05-11T18:16:37.544Z,16.60
2019-05-11T18:19:08.462Z,16.50
2019-05-11T18:21:38.701Z,16.40
2019-05-11T18:24:09.427Z,16.30
2019-05-11T18:26:38.497Z,16.30
2019-05-11T18:29:07.783Z,16.20
2019-05-11T18:31:38.335Z,16.00
2019-05-11T18:34:08.946Z,16.00
2019-05-11T18:36:38.359Z,15.90
2019-05-11T18:39:08.337Z,15.80
2019-05-11T18:41:39.101Z,15.80
2019-05-11T18:44:08.408Z,15.70
2019-05-11T18:46:38.942Z,15.70
2019-05-11T18:49:08.194Z,15.70
2019-05-11T18:51:37.810Z,15.60
2019-05-11T18:54:09.346Z,15.60
2019-05-11T18:56:38.419Z,15.50
2019-05-11T18:59:08.924Z,15.50
2019-05-11T19:01:38.367Z,15.50
2019-05-11T19:04:07.971Z,15.30
2019-05-11T19:06:37.879Z,15.40
2019-05-11T19:09:07.934Z,15.30
2019-05-11T19:11:38.349Z,15.20
2019-05-11T19:14:08.541Z,15.20
2019-05-11T19:16:39.007Z,15.10
2019-05-11T19:19:08.342Z,15.00
2019-05-11T19:21:37.406Z,14.90
2019-05-11T19:24:09.186Z,14.90
2019-05-11T19:26:37.444Z,14.90
2019-05-11T19:29:08.738Z,14.90
2019-05-11T19:31:38.602Z,14.90
2019-05-11T19:34:09.074Z,14.90
2019-05-11T19:36:38.318Z,14.90
2019-05-11T19:39:09.065Z,14.90
2019-05-11T19:41:38.285Z,14.90
2019-05-11T19:44:08.552Z,14.70
2019-05-11T19:46:38.860Z,14.80
2019-05-11T19:49:08.597Z,14.80
2019-05-11T19:51:42.331Z,14.70
2019-05-11T19:54:08.623Z,14.50
2019-05-11T19:56:38.408Z,14.50
2019-05-11T19:59:08.535Z,14.50
2019-05-11T20:01:37.660Z,14.50
2019-05-11T20:04:08.214Z,14.40
2019-05-11T20:06:38.603Z,14.40
2019-05-11T20:09:08.820Z,14.40
2019-05-11T20:11:38.497Z,14.30
2019-05-11T20:14:08.113Z,14.20
2019-05-11T20:16:37.458Z,14.20
2019-05-11T20:19:08.667Z,14.20
2019-05-11T20:21:38.234Z,14.20
2019-05-11T20:24:08.583Z,14.10
2019-05-11T20:26:37.901Z,14.10
2019-05-11T20:29:08.103Z,14.20
2019-05-11T20:31:37.583Z,14.20
2019-05-11T20:34:07.009Z,14.30
2019-05-11T20:36:36.012Z,14.10
2019-05-11T20:39:07.121Z,14.00
2019-05-11T20:41:38.328Z,14.10
2019-05-11T20:44:08.702Z,14.00
2019-05-11T20:46:38.343Z,14.00
2019-05-11T20:49:07.547Z,13.90
2019-05-11T20:51:37.281Z,13.90
2019-05-11T20:54:08.629Z,13.90
2019-05-11T20:56:38.830Z,13.70
2019-05-11T20:59:08.505Z,13.60
2019-05-11T21:01:38.770Z,13.60
2019-05-11T21:04:08.476Z,13.60
2019-05-11T21:06:37.882Z,13.50
2019-05-11T21:09:07.933Z,13.60
2019-05-11T21:11:37.214Z,13.50
2019-05-11T21:14:08.008Z,13.40
2019-05-11T21:16:38.640Z,13.30
2019-05-11T21:19:08.173Z,13.30
2019-05-11T21:21:49.500Z,13.20
2019-05-11T21:24:08.665Z,13.10
2019-05-11T21:26:38.493Z,13.10
2019-05-11T21:29:08.576Z,13.10
2019-05-11T21:31:40.582Z,13.00
2019-05-11T21:34:08.691Z,12.90
2019-05-11T21:36:37.961Z,12.80
2019-05-11T21:39:08.915Z,12.80
2019-05-11T21:41:38.711Z,12.70
2019-05-11T21:44:08.460Z,12.80
2019-05-11T21:46:38.847Z,12.90
2019-05-11T21:49:08.085Z,12.80
2019-05-11T21:51:38.103Z,12.70
2019-05-11T21:54:07.190Z,12.50
2019-05-11T21:56:38.058Z,12.50
2019-05-11T21:59:07.978Z,12.50
2019-05-11T22:01:38.480Z,12.50
2019-05-11T22:04:10.952Z,12.40
2019-05-11T22:06:39.062Z,12.20
2019-05-11T22:09:09.037Z,12.20
2019-05-11T22:11:38.215Z,12.10
2019-05-11T22:14:08.352Z,12.10
2019-05-11T22:16:38.774Z,12.00
2019-05-11T22:19:09.043Z,12.00
2019-05-11T22:21:38.157Z,12.00
2019-05-11T22:24:08.609Z,11.90
2019-05-11T22:26:38.099Z,11.80
2019-05-11T22:29:07.900Z,11.90
2019-05-11T22:31:38.294Z,11.90
2019-05-11T22:34:08.893Z,11.90
2019-05-11T22:36:38.510Z,12.00
2019-05-11T22:39:08.847Z,12.10
2019-05-11T22:41:39.626Z,11.90
2019-05-11T22:44:10.999Z,11.70
2019-05-11T22:46:39.197Z,11.60
2019-05-11T22:49:08.532Z,11.80
2019-05-11T22:51:37.711Z,12.10
2019-05-11T22:54:08.121Z,11.80
2019-05-11T22:56:38.046Z,11.60
2019-05-11T22:59:08.258Z,11.50
2019-05-11T23:01:38.097Z,11.50
2019-05-11T23:04:07.346Z,11.60
2019-05-11T23:06:40.293Z,11.80
2019-05-11T23:09:08.051Z,11.80
2019-05-11T23:11:37.932Z,11.90
2019-05-11T23:14:09.896Z,11.90
2019-05-11T23:16:38.074Z,11.80
2019-05-11T23:19:09.489Z,11.70
2019-05-11T23:21:38.793Z,11.70
2019-05-11T23:24:08.462Z,11.60
2019-05-11T23:26:38.629Z,11.60
2019-05-11T23:29:08.193Z,11.70
2019-05-11T23:31:38.296Z,11.40
2019-05-11T23:34:08.343Z,11.50
2019-05-11T23:36:38.303Z,11.60
2019-05-11T23:39:09.102Z,11.60
2019-05-11T23:41:38.515Z,11.40
2019-05-11T23:44:08.920Z,11.20
2019-05-11T23:46:38.743Z,11.10
2019-05-11T23:49:08.786Z,11.00
2019-05-11T23:51:38.671Z,10.90
2019-05-11T23:54:08.063Z,11.10
2019-05-11T23:56:38.660Z,11.00
2019-05-11T23:59:08.457Z,10.80
